createdAt,value
2018-04-30T05:13:44.795Z,16.7
2018-04-30T05:15:25.209Z,17.3
2018-04-30T05:16:15.268Z,17.6
2018-04-30T05:17:05.355Z,17.9
2018-04-30T05:17:55.409Z,18.2
2018-04-30T05:18:45.205Z,18.5
2018-04-30T05:19:35.528Z,18.8
2018-04-30T05:20:25.588Z,19.1
2018-04-30T05:21:15.680Z,19.4
2018-04-30T05:22:05.732Z,19.8
2018-04-30T05:22:55.793Z,20.2
2018-04-30T05:23:45.848Z,20.5
2018-04-30T05:24:35.917Z,20.9
2018-04-30T05:25:26.011Z,21.3
2018-04-30T05:26:16.047Z,21.6
2018-04-30T05:27:06.109Z,21.9
2018-04-30T05:27:56.181Z,22.3
2018-04-30T05:28:46.313Z,22.7
2018-04-30T05:29:35.836Z,23.1
2018-04-30T05:30:26.366Z,23.4
2018-04-30T05:31:16.165Z,23.8
2018-04-30T05:32:06.239Z,24.1
2018-04-30T05:32:56.286Z,24.5
2018-04-30T05:33:46.718Z,24.9
2018-04-30T05:34:36.411Z,25.3
2018-04-30T05:35:26.281Z,25.6
2018-04-30T05:36:16.836Z,26
2018-04-30T05:37:06.605Z,26.3
2018-04-30T05:37:56.656Z,26.6
2018-04-30T05:38:46.728Z,26.9
2018-04-30T05:39:37.068Z,27.3
2018-04-30T05:40:27.126Z,27.6
2018-04-30T05:42:06.985Z,28.1
2018-04-30T05:42:57.336Z,28.4
2018-04-30T05:43:47.405Z,28.6
2018-04-30T05:44:36.908Z,28.9
2018-04-30T05:45:27.543Z,29.3
2018-04-30T05:46:17.305Z,29.5
2018-04-30T05:47:07.653Z,29.8
2018-04-30T05:47:57.859Z,30.1
2018-04-30T05:48:47.766Z,30.4
2018-04-30T05:49:37.843Z,30.6
2018-04-30T05:50:27.972Z,30.9
2018-04-30T05:51:17.706Z,31.3
2018-04-30T05:52:08.057Z,31.5
2018-04-30T05:52:58.082Z,31.7
2018-04-30T05:53:48.170Z,31.9
2018-04-30T05:54:38.228Z,32.2
2018-04-30T05:55:28.297Z,32.5
2018-04-30T05:56:18.063Z,32.7
2018-04-30T05:57:08.430Z,33
2018-04-30T05:57:58.478Z,33.3
2018-04-30T05:58:48.536Z,33.5
2018-04-30T05:59:38.597Z,33.8
2018-04-30T06:00:28.810Z,34.1
2018-04-30T06:01:18.729Z,34.4
2018-04-30T06:02:08.801Z,34.6
2018-04-30T06:02:58.876Z,34.9
2018-04-30T06:03:48.929Z,35.1
2018-04-30T06:04:38.717Z,35.3
2018-04-30T06:05:29.064Z,35.5
2018-04-30T06:06:18.827Z,35.6
2018-04-30T06:07:08.629Z,35.8
2018-04-30T06:07:59.264Z,35.8
2018-04-30T06:08:49.049Z,35.9
2018-04-30T06:09:39.389Z,35.9
2018-04-30T06:10:29.439Z,35.9
2018-04-30T06:11:19.565Z,35.9
2018-04-30T06:12:09.400Z,36
2018-04-30T06:12:59.649Z,36.1
2018-04-30T06:13:49.719Z,36.3
2018-04-30T06:14:39.761Z,36.5
2018-04-30T06:15:29.815Z,36.6
2018-04-30T06:16:19.906Z,36.9
2018-04-30T06:17:09.949Z,37.1
2018-04-30T06:18:00.015Z,37.4
2018-04-30T06:18:50.085Z,37.6
2018-04-30T06:19:40.238Z,37.9
2018-04-30T06:20:30.199Z,38.3
2018-04-30T06:21:20.268Z,38.6
2018-04-30T06:22:10.346Z,38.9
2018-04-30T06:23:00.409Z,39.3
2018-04-30T06:23:50.472Z,39.6
2018-04-30T06:24:40.574Z,39.9
2018-04-30T06:25:30.594Z,40.2
2018-04-30T06:26:20.659Z,40.4
2018-04-30T06:27:10.747Z,40.6
2018-04-30T06:28:00.795Z,40.8
2018-04-30T06:28:50.878Z,40.9
2018-04-30T06:29:40.913Z,41.1
2018-04-30T06:30:30.988Z,41.1
2018-04-30T06:31:20.769Z,41.1
2018-04-30T06:32:10.836Z,41.1
2018-04-30T06:33:01.176Z,41.1
2018-04-30T06:33:51.247Z,41.1
2018-04-30T06:34:41.040Z,41.2
2018-04-30T06:35:31.380Z,41.3
2018-04-30T06:36:21.180Z,41.5
2018-04-30T06:37:11.491Z,41.8
2018-04-30T06:38:01.556Z,42.1
2018-04-30T06:38:51.636Z,42.7
2018-04-30T06:39:41.679Z,43.3
2018-04-30T06:40:31.464Z,44
2018-04-30T06:41:21.819Z,44.7
2018-04-30T06:42:11.887Z,45.8
2018-04-30T06:43:01.949Z,47.9
2018-04-30T06:43:51.993Z,48.6
2018-04-30T06:44:42.076Z,47.9
2018-04-30T06:45:31.847Z,47
2018-04-30T06:46:22.226Z,45
2018-04-30T06:47:12.000Z,42.5
2018-04-30T06:48:02.331Z,41.1
2018-04-30T06:48:52.409Z,40.4
2018-04-30T06:49:42.476Z,39.9
2018-04-30T06:50:32.534Z,39.6
2018-04-30T06:51:22.606Z,39.7
2018-04-30T06:52:12.664Z,40.1
2018-04-30T06:53:02.716Z,40.7
2018-04-30T06:53:52.789Z,41.4
2018-04-30T06:54:42.853Z,42.1
2018-04-30T06:55:32.921Z,42.9
2018-04-30T06:56:22.974Z,43.8
2018-04-30T06:57:13.035Z,44.5
2018-04-30T06:58:02.824Z,45.8
2018-04-30T06:58:53.186Z,47.7
2018-04-30T06:59:42.959Z,47.6
2018-04-30T07:00:33.029Z,46.6
2018-04-30T07:01:23.355Z,45.9
2018-04-30T07:02:13.446Z,44.9
2018-04-30T07:03:03.501Z,43.8
2018-04-30T07:03:53.304Z,42.9
2018-04-30T07:04:43.626Z,42.3
2018-04-30T07:05:33.689Z,41.8
2018-04-30T07:06:23.818Z,41.4
2018-04-30T07:07:13.858Z,41.3
2018-04-30T07:08:03.629Z,41.3
2018-04-30T07:08:53.960Z,41.3
2018-04-30T07:09:44.702Z,41.6
2018-04-30T07:10:34.088Z,41.9
2018-04-30T07:11:24.154Z,42.6
2018-04-30T07:12:14.225Z,43.3
2018-04-30T07:13:04.014Z,44.3
2018-04-30T07:13:54.356Z,46.8
2018-04-30T07:14:43.850Z,48.4
2018-04-30T07:15:34.485Z,48.6
2018-04-30T07:16:24.548Z,48.9
2018-04-30T07:17:14.613Z,48.9
2018-04-30T07:18:04.670Z,48.4
2018-04-30T07:18:54.470Z,47.6
2018-04-30T07:19:44.807Z,47
2018-04-30T07:20:34.874Z,46.7
2018-04-30T07:21:24.935Z,46.8
2018-04-30T07:22:14.997Z,47.3
2018-04-30T07:23:05.074Z,47.6
2018-04-30T07:23:54.860Z,47.9
2018-04-30T07:24:44.923Z,47.9
2018-04-30T07:25:34.976Z,47.9
2018-04-30T07:26:25.321Z,47.6
2018-04-30T07:27:15.399Z,47.2
2018-04-30T07:28:05.181Z,46.6
2018-04-30T07:28:55.531Z,46.2
2018-04-30T07:29:45.591Z,45.9
2018-04-30T07:30:35.663Z,45.7
2018-04-30T07:31:25.743Z,45.5
2018-04-30T07:32:15.798Z,45.2
2018-04-30T07:33:05.989Z,44.9
2018-04-30T07:33:55.646Z,44.5
2018-04-30T07:34:45.974Z,44.1
2018-04-30T07:35:36.122Z,43.7
2018-04-30T07:36:26.119Z,43.3
2018-04-30T07:37:16.180Z,43.1
2018-04-30T07:38:06.241Z,42.8
2018-04-30T07:38:56.020Z,42.5
2018-04-30T07:39:46.402Z,42.3
2018-04-30T07:40:36.179Z,42.1
2018-04-30T07:41:26.540Z,41.9
2018-04-30T07:42:16.586Z,41.3
2018-04-30T07:43:06.370Z,40.8
2018-04-30T07:43:56.725Z,40.4
2018-04-30T07:44:46.489Z,40.1
2018-04-30T07:45:36.837Z,39.9
2018-04-30T07:46:26.897Z,39.8
2018-04-30T07:47:16.970Z,39.7
2018-04-30T07:48:07.026Z,39.8
2018-04-30T07:48:56.824Z,40.2
2018-04-30T07:49:46.898Z,40.9
2018-04-30T07:50:37.229Z,41.9
2018-04-30T07:51:27.287Z,43.3
2018-04-30T07:52:17.075Z,45.4
2018-04-30T07:53:07.200Z,48.7
2018-04-30T07:53:57.487Z,50
2018-04-30T07:54:47.277Z,50.4
2018-04-30T07:55:37.606Z,50.9
2018-04-30T07:56:27.690Z,50.6
2018-04-30T07:57:17.895Z,50
2018-04-30T07:58:07.817Z,49.5
2018-04-30T07:58:57.603Z,49.2
2018-04-30T07:59:47.933Z,49.4
2018-04-30T08:00:37.999Z,50.1
2018-04-30T08:01:28.087Z,50.8
2018-04-30T08:02:17.863Z,51.5
2018-04-30T08:03:08.206Z,52.1
2018-04-30T08:03:58.280Z,52.5
2018-04-30T08:04:48.063Z,52.7
2018-04-30T08:05:38.397Z,52.8
2018-04-30T08:06:28.467Z,52.9
2018-04-30T08:07:18.261Z,53.1
2018-04-30T08:08:08.595Z,53.4
2018-04-30T08:08:58.675Z,53.7
2018-04-30T08:09:48.463Z,54
2018-04-30T08:10:38.787Z,54.3
2018-04-30T08:11:28.859Z,54.6
2018-04-30T08:12:18.666Z,54.8
2018-04-30T08:13:08.998Z,54.9
2018-04-30T08:13:59.061Z,55
2018-04-30T08:14:49.251Z,55
2018-04-30T08:15:39.187Z,55.1
2018-04-30T08:16:29.250Z,55.3
2018-04-30T08:17:19.062Z,55.4
2018-04-30T08:18:09.388Z,55.4
2018-04-30T08:18:59.175Z,55.5
2018-04-30T08:19:49.546Z,55.4
2018-04-30T08:20:39.037Z,55.3
2018-04-30T08:21:29.526Z,54.9
2018-04-30T08:22:19.738Z,54.6
2018-04-30T08:23:09.523Z,54.3
2018-04-30T08:23:59.847Z,53.9
2018-04-30T08:24:49.925Z,53.6
2018-04-30T08:25:39.717Z,53.4
2018-04-30T08:26:29.782Z,53.2
2018-04-30T08:27:20.115Z,52.9
2018-04-30T08:28:10.187Z,52.6
2018-04-30T08:28:59.964Z,52.2
2018-04-30T08:29:50.031Z,51.8
2018-04-30T08:30:40.379Z,51.5
2018-04-30T08:31:30.446Z,51.2
2018-04-30T08:32:20.525Z,51
2018-04-30T08:33:10.579Z,50.9
2018-04-30T08:34:00.360Z,51
2018-04-30T08:34:50.716Z,51.3
2018-04-30T08:35:40.788Z,51.5
2018-04-30T08:36:30.845Z,51.8
2018-04-30T08:37:20.915Z,52.1
2018-04-30T08:39:01.069Z,52.7
2018-04-30T08:39:50.832Z,52.9
2018-04-30T08:40:41.171Z,53.3
2018-04-30T08:41:31.257Z,53.6
2018-04-30T08:42:21.306Z,54
2018-04-30T08:43:11.400Z,54.4
2018-04-30T08:44:01.169Z,54.8
2018-04-30T08:44:51.210Z,55.1
2018-04-30T08:45:41.566Z,55.5
2018-04-30T08:46:31.626Z,55.8
2018-04-30T08:47:21.701Z,56.1
2018-04-30T08:48:11.478Z,56.4
2018-04-30T08:49:01.840Z,56.6
2018-04-30T08:49:51.906Z,56.9
2018-04-30T08:50:41.959Z,57.2
2018-04-30T08:51:31.459Z,57.4
2018-04-30T08:52:22.089Z,57.6
2018-04-30T08:53:11.692Z,57.9
2018-04-30T08:54:01.950Z,58.1
2018-04-30T08:54:52.011Z,58.3
2018-04-30T08:55:42.074Z,58.5
2018-04-30T08:56:32.435Z,58.7
2018-04-30T08:57:21.927Z,58.9
2018-04-30T08:58:12.579Z,59.1
2018-04-30T08:59:02.626Z,59.4
2018-04-30T08:59:52.684Z,59.6
2018-04-30T09:00:42.796Z,59.9
2018-04-30T09:01:32.552Z,60.1
2018-04-30T09:02:22.611Z,60.3
2018-04-30T09:03:12.955Z,60.4
2018-04-30T09:04:03.018Z,60.4
2018-04-30T09:04:53.079Z,60.6
2018-04-30T09:05:43.157Z,60.8
2018-04-30T09:06:33.215Z,60.9
2018-04-30T09:07:23.013Z,61.1
2018-04-30T09:08:13.344Z,61.3
2018-04-30T09:09:03.144Z,61.4
2018-04-30T09:09:53.471Z,61.5
2018-04-30T09:10:43.546Z,61.6
2018-04-30T09:11:33.601Z,61.6
2018-04-30T09:12:23.701Z,61.7
2018-04-30T09:13:13.467Z,61.7
2018-04-30T09:14:03.805Z,61.8
2018-04-30T09:14:54.043Z,61.8
2018-04-30T09:15:43.956Z,61.8
2018-04-30T09:16:34.020Z,61.8
2018-04-30T09:17:24.075Z,61.9
2018-04-30T09:18:13.857Z,61.9
2018-04-30T09:19:03.914Z,62
2018-04-30T09:19:54.265Z,62
2018-04-30T09:20:44.341Z,62.1
2018-04-30T09:21:34.413Z,62.1
2018-04-30T09:22:24.466Z,62
2018-04-30T09:23:14.241Z,61.9
2018-04-30T09:24:04.608Z,61.9
2018-04-30T09:24:54.678Z,61.8
2018-04-30T09:25:44.745Z,61.8
2018-04-30T09:26:34.513Z,61.7
2018-04-30T09:27:24.874Z,61.7
2018-04-30T09:28:15.448Z,61.8
2018-04-30T09:29:05.303Z,62
2018-04-30T09:29:55.071Z,62.3
2018-04-30T09:30:45.161Z,62.4
2018-04-30T09:31:35.205Z,62.7
2018-04-30T09:32:25.259Z,62.8
2018-04-30T09:33:15.063Z,63
2018-04-30T09:34:05.116Z,63.1
2018-04-30T09:34:55.393Z,63.3
2018-04-30T09:35:45.534Z,63.4
2018-04-30T09:36:35.617Z,63.5
2018-04-30T09:37:25.659Z,63.6
2018-04-30T09:38:15.444Z,63.8
2018-04-30T09:39:05.799Z,63.9
2018-04-30T09:39:55.867Z,64
2018-04-30T09:40:45.924Z,63.9
2018-04-30T09:41:36.006Z,63.9
2018-04-30T09:42:26.047Z,63.9
2018-04-30T09:43:16.143Z,63.8
2018-04-30T09:44:05.917Z,63.5
2018-04-30T09:44:56.250Z,63.2
2018-04-30T09:45:46.318Z,63
2018-04-30T09:46:36.389Z,62.8
2018-04-30T09:47:26.204Z,62.7
2018-04-30T09:48:16.517Z,62.5
2018-04-30T09:49:06.588Z,62.3
2018-04-30T09:49:56.653Z,62.1
2018-04-30T09:50:46.431Z,62
2018-04-30T09:51:36.511Z,62.2
2018-04-30T09:52:26.595Z,62.5
2018-04-30T09:53:16.929Z,62.8
2018-04-30T09:54:06.979Z,62.9
2018-04-30T09:54:57.060Z,62.9
2018-04-30T09:55:47.110Z,62.8
2018-04-30T09:56:36.909Z,62.6
2018-04-30T09:57:27.268Z,62.4
2018-04-30T09:58:17.324Z,62.1
2018-04-30T09:59:06.839Z,61.8
2018-04-30T09:59:57.467Z,61.3
2018-04-30T10:00:47.509Z,60.7
2018-04-30T10:01:37.594Z,60.2
2018-04-30T10:02:27.643Z,59.8
2018-04-30T10:03:17.724Z,59.6
2018-04-30T10:04:07.786Z,59.8
2018-04-30T10:04:57.848Z,60
2018-04-30T10:05:47.912Z,60.1
2018-04-30T10:06:37.692Z,59.9
2018-04-30T10:07:27.790Z,59.4
2018-04-30T10:08:17.837Z,58.8
2018-04-30T10:09:08.201Z,57.9
2018-04-30T10:09:58.241Z,57.1
2018-04-30T10:10:48.316Z,56.3
2018-04-30T10:11:38.115Z,55.8
2018-04-30T10:12:27.883Z,55.5
2018-04-30T10:13:18.517Z,55.3
2018-04-30T10:14:08.582Z,55.1
2018-04-30T10:14:58.641Z,55.4
2018-04-30T10:15:48.446Z,55.8
2018-04-30T10:16:38.794Z,56.3
2018-04-30T10:17:28.582Z,56.6
2018-04-30T10:18:18.922Z,56.8
2018-04-30T10:19:08.979Z,56.8
2018-04-30T10:19:58.772Z,56.5
2018-04-30T10:20:49.107Z,56.3
2018-04-30T10:21:39.162Z,56
2018-04-30T10:22:28.985Z,55.9
2018-04-30T10:23:19.593Z,55.9
2018-04-30T10:24:09.082Z,56.2
2018-04-30T10:24:58.887Z,56.7
2018-04-30T10:25:49.497Z,57.2
2018-04-30T10:26:39.588Z,57.5
2018-04-30T10:28:19.135Z,57.9
2018-04-30T10:30:49.896Z,58.1
2018-04-30T10:31:40.229Z,58.3
2018-04-30T10:32:30.049Z,58.3
2018-04-30T10:33:19.833Z,58.3
2018-04-30T10:34:10.175Z,58.3
2018-04-30T10:34:59.964Z,58.4
2018-04-30T10:36:40.102Z,58.7
2018-04-30T10:37:30.429Z,58.8
2018-04-30T10:38:20.517Z,58.9
2018-04-30T10:39:10.580Z,59
2018-04-30T10:40:00.646Z,59.1
2018-04-30T10:40:50.701Z,59.2
2018-04-30T10:41:40.758Z,59.4
2018-04-30T10:42:30.546Z,59.7
2018-04-30T10:43:20.350Z,59.9
2018-04-30T10:44:10.958Z,60.1
2018-04-30T10:45:01.042Z,60.3
2018-04-30T10:45:51.609Z,60.3
2018-04-30T10:46:40.876Z,60.1
2018-04-30T10:47:31.264Z,59.6
2018-04-30T10:48:21.310Z,59.3
2018-04-30T10:49:11.378Z,59.2
2018-04-30T10:50:01.163Z,59.3
2018-04-30T10:50:51.212Z,59.3
2018-04-30T10:51:41.726Z,59.1
2018-04-30T10:52:31.339Z,58.7
2018-04-30T10:53:21.697Z,58.4
2018-04-30T10:54:11.775Z,58.3
2018-04-30T10:55:01.557Z,58.1
2018-04-30T10:55:51.905Z,57.9
2018-04-30T10:56:41.963Z,57.6
2018-04-30T10:57:32.039Z,57.3
2018-04-30T10:58:22.115Z,57
2018-04-30T10:59:12.178Z,56.7
2018-04-30T11:00:01.963Z,56.4
2018-04-30T11:00:52.279Z,56.4
2018-04-30T11:01:41.810Z,56.4
2018-04-30T11:02:32.254Z,56.4
2018-04-30T11:03:22.496Z,56.3
2018-04-30T11:04:12.613Z,56.2
2018-04-30T11:05:02.644Z,55.9
2018-04-30T11:05:52.411Z,55.7
2018-04-30T11:06:42.757Z,55.5
2018-04-30T11:07:32.533Z,55.4
2018-04-30T11:08:22.896Z,55.6
2018-04-30T11:09:12.686Z,55.9
2018-04-30T11:10:02.743Z,56.3
2018-04-30T11:10:53.088Z,56.5
2018-04-30T11:11:43.151Z,56.6
2018-04-30T11:12:33.248Z,56.5
2018-04-30T11:13:23.003Z,56.2
2018-04-30T11:14:13.356Z,55.8
2018-04-30T11:15:03.414Z,55.6
2018-04-30T11:15:53.479Z,55.5
2018-04-30T11:16:43.552Z,55.4
2018-04-30T11:17:33.613Z,55.3
2018-04-30T11:18:23.697Z,55.2
2018-04-30T11:19:13.459Z,55.2
2018-04-30T11:20:03.556Z,55.3
2018-04-30T11:20:53.876Z,55.1
2018-04-30T11:21:43.945Z,54.9
2018-04-30T11:22:34.014Z,54.6
2018-04-30T11:23:24.101Z,54.3
2018-04-30T11:24:14.147Z,54.1
2018-04-30T11:25:04.218Z,54
2018-04-30T11:25:54.290Z,54.1
2018-04-30T11:26:44.348Z,54.3
2018-04-30T11:27:34.562Z,54.3
2018-04-30T11:28:24.496Z,54.3
2018-04-30T11:29:14.540Z,54.3
2018-04-30T11:30:04.624Z,54.3
2018-04-30T11:30:54.695Z,54.3
2018-04-30T11:31:44.462Z,54.3
2018-04-30T11:32:34.837Z,54.3
2018-04-30T11:33:24.905Z,54.5
2018-04-30T11:34:14.864Z,54.7
2018-04-30T11:35:05.046Z,54.9
2018-04-30T11:35:55.098Z,55
2018-04-30T11:36:45.169Z,55.3
2018-04-30T11:37:35.234Z,55.6
2018-04-30T11:38:25.302Z,55.9
2018-04-30T11:39:15.072Z,56.3
2018-04-30T11:40:05.854Z,56.6
2018-04-30T11:40:55.523Z,56.7
2018-04-30T11:41:45.559Z,56.7
2018-04-30T11:42:35.616Z,56.6
2018-04-30T11:43:25.701Z,56.6
2018-04-30T11:44:16.256Z,56.6
2018-04-30T11:45:05.842Z,56.5
2018-04-30T11:45:55.885Z,56.4
2018-04-30T11:46:45.965Z,56.3
2018-04-30T11:47:36.665Z,56
2018-04-30T11:48:25.819Z,55.6
2018-04-30T11:49:15.915Z,55.3
2018-04-30T11:50:06.215Z,55
2018-04-30T11:50:56.582Z,54.8
2018-04-30T11:51:46.366Z,54.8
2018-04-30T11:52:36.413Z,54.9
2018-04-30T11:53:26.215Z,55.1
2018-04-30T11:54:16.268Z,55.2
2018-04-30T11:55:06.619Z,54.9
2018-04-30T11:55:56.731Z,54.5
2018-04-30T11:56:46.473Z,54.2
2018-04-30T11:57:36.587Z,53.9
2018-04-30T11:58:26.891Z,53.9
2018-04-30T11:59:16.945Z,53.9
2018-04-30T12:00:06.741Z,53.9
2018-04-30T12:00:57.105Z,54.1
2018-04-30T12:01:47.159Z,54.1
2018-04-30T12:02:37.223Z,54.1
2018-04-30T12:03:27.275Z,54.1
2018-04-30T12:04:17.050Z,53.9
2018-04-30T12:05:07.423Z,53.8
2018-04-30T12:05:57.207Z,53.6
2018-04-30T12:06:47.609Z,53.5
2018-04-30T12:07:37.642Z,53.4
2018-04-30T12:08:27.678Z,53.3
2018-04-30T12:09:17.755Z,53.3
2018-04-30T12:10:08.323Z,53.2
2018-04-30T12:10:58.225Z,53.1
2018-04-30T12:11:47.980Z,52.9
2018-04-30T12:12:37.444Z,52.8
2018-04-30T12:13:28.655Z,52.8
2018-04-30T12:14:18.133Z,52.6
2018-04-30T12:15:08.240Z,52.5
2018-04-30T12:16:49.386Z,52.3
2018-04-30T12:17:38.457Z,52.1
2018-04-30T12:18:28.197Z,52
2018-04-30T12:21:48.568Z,52
2018-04-30T12:22:38.823Z,52
2018-04-30T12:23:28.886Z,52.1
2018-04-30T12:24:18.939Z,52.1
2018-04-30T12:25:09.010Z,52.1
2018-04-30T12:25:58.785Z,52.1
2018-04-30T12:26:48.277Z,52
2018-04-30T12:27:39.270Z,51.8
2018-04-30T12:28:28.998Z,51.6
2018-04-30T12:29:19.340Z,51.4
2018-04-30T12:30:09.405Z,51.1
2018-04-30T12:30:59.475Z,50.9
2018-04-30T12:31:49.541Z,50.8
2018-04-30T12:32:39.666Z,50.6
2018-04-30T12:33:30.099Z,50.4
2018-04-30T12:34:19.725Z,50.3
2018-04-30T12:35:09.816Z,50.3
2018-04-30T12:36:00.494Z,50.1
2018-04-30T12:36:49.935Z,50
2018-04-30T12:37:39.710Z,49.9
2018-04-30T12:38:30.082Z,49.8
2018-04-30T12:39:21.143Z,49.6
2018-04-30T12:40:10.209Z,49.4
2018-04-30T12:41:00.480Z,49.4
2018-04-30T12:41:49.756Z,49.3
2018-04-30T12:42:41.999Z,49.2
2018-04-30T12:43:30.481Z,49.2
2018-04-30T12:44:20.541Z,49.1
2018-04-30T12:45:10.609Z,49.1
2018-04-30T12:46:00.416Z,49.1
2018-04-30T12:46:50.729Z,49
2018-04-30T12:47:40.817Z,48.9
2018-04-30T12:48:30.574Z,48.9
2018-04-30T12:49:20.725Z,48.8
2018-04-30T12:50:10.999Z,48.7
2018-04-30T12:51:00.785Z,48.5
2018-04-30T12:51:51.119Z,48.3
2018-04-30T12:52:41.217Z,48.1
2018-04-30T12:53:31.249Z,47.6
2018-04-30T12:54:21.318Z,47
2018-04-30T12:55:11.402Z,46.4
2018-04-30T12:56:01.788Z,46
2018-04-30T12:56:51.516Z,45.6
2018-04-30T12:57:41.593Z,45.4
2018-04-30T12:58:32.189Z,45.1
2018-04-30T12:59:21.733Z,44.8
2018-04-30T13:00:11.796Z,44.5
2018-04-30T13:01:01.871Z,44.3
2018-04-30T13:01:53.723Z,44
2018-04-30T13:02:42.004Z,43.8
2018-04-30T13:03:32.059Z,43.6
2018-04-30T13:04:21.540Z,43.5
2018-04-30T13:05:11.905Z,43.3
2018-04-30T13:06:02.331Z,43.1
2018-04-30T13:06:52.345Z,43
2018-04-30T13:07:41.520Z,42.8
2018-04-30T13:08:32.466Z,42.6
2018-04-30T13:09:22.243Z,42.5
2018-04-30T13:10:12.587Z,42.4
2018-04-30T13:11:03.937Z,42.3
2018-04-30T13:11:52.717Z,42.1
2018-04-30T13:12:42.492Z,42.1
2018-04-30T13:13:32.932Z,42.1
2018-04-30T13:14:24.590Z,42
2018-04-30T13:15:12.980Z,42
2018-04-30T13:16:03.057Z,42
2018-04-30T13:16:53.108Z,41.9
2018-04-30T13:17:43.161Z,41.9
2018-04-30T13:18:33.209Z,41.8
2018-04-30T13:19:23.298Z,41.7
2018-04-30T13:20:13.336Z,41.6
2018-04-30T13:21:03.413Z,41.4
2018-04-30T13:21:53.534Z,41.3
2018-04-30T13:22:43.258Z,41.1
2018-04-30T13:23:33.617Z,40.9
2018-04-30T13:24:23.669Z,40.6
2018-04-30T13:25:13.735Z,40.4
2018-04-30T13:26:03.867Z,40.3
2018-04-30T13:26:53.320Z,40.1
2018-04-30T13:27:43.938Z,39.8
2018-04-30T13:28:34.200Z,39.6
2018-04-30T13:29:23.792Z,39.4
2018-04-30T13:30:14.135Z,39.3
2018-04-30T13:31:04.230Z,39.1
2018-04-30T13:31:54.274Z,38.9
2018-04-30T13:32:44.350Z,38.8
2018-04-30T13:33:34.407Z,38.7
2018-04-30T13:34:24.204Z,38.6
2018-04-30T13:35:14.564Z,38.4
2018-04-30T13:36:04.595Z,38.4
2018-04-30T13:36:54.661Z,38.3
2018-04-30T13:37:44.732Z,38.2
2018-04-30T13:38:34.529Z,38.1
2018-04-30T13:39:24.860Z,38.1
2018-04-30T13:40:14.921Z,38.1
2018-04-30T13:41:05.009Z,38.1
2018-04-30T13:41:55.055Z,38
2018-04-30T13:42:45.146Z,38
2018-04-30T13:43:35.289Z,38
2018-04-30T13:44:25.257Z,38
2018-04-30T13:45:15.329Z,38
2018-04-30T13:46:05.406Z,38.1
2018-04-30T13:46:55.461Z,38.1
2018-04-30T13:47:45.224Z,38.1
2018-04-30T13:48:35.595Z,38.3
2018-04-30T13:49:25.649Z,38.4
2018-04-30T13:50:15.703Z,38.6
2018-04-30T13:51:05.508Z,38.8
2018-04-30T13:51:55.864Z,38.9
2018-04-30T13:52:45.928Z,39
2018-04-30T13:53:35.991Z,39.1
2018-04-30T13:54:26.128Z,39.2
2018-04-30T13:55:16.358Z,39.3
2018-04-30T13:56:06.170Z,39.3
2018-04-30T13:56:56.270Z,39.4
2018-04-30T13:57:46.375Z,39.4
2018-04-30T13:58:36.395Z,39.5
2018-04-30T13:59:25.885Z,39.6
2018-04-30T14:00:16.495Z,39.6
2018-04-30T14:01:06.567Z,39.5
2018-04-30T14:01:56.611Z,39.4
2018-04-30T14:02:46.427Z,39.4
2018-04-30T14:03:36.770Z,39.3
2018-04-30T14:04:26.830Z,39.2
2018-04-30T14:05:16.612Z,39.1
2018-04-30T14:06:06.973Z,39
2018-04-30T14:06:57.044Z,38.9
2018-04-30T14:07:47.083Z,38.8
2018-04-30T14:08:37.150Z,38.6
2018-04-30T14:09:27.280Z,38.5
2018-04-30T14:10:17.002Z,38.4
2018-04-30T14:11:07.361Z,38.3
2018-04-30T14:11:57.412Z,38.1
2018-04-30T14:12:47.493Z,38
2018-04-30T14:13:37.647Z,37.9
2018-04-30T14:14:27.613Z,37.8
2018-04-30T14:15:17.412Z,37.8
2018-04-30T14:16:08.172Z,37.6
2018-04-30T14:16:57.525Z,37.6
2018-04-30T14:17:47.872Z,37.4
2018-04-30T14:18:37.939Z,37.3
2018-04-30T14:19:28.021Z,37.3
2018-04-30T14:20:17.795Z,37.2
2018-04-30T14:21:08.164Z,37.1
2018-04-30T14:21:58.207Z,37
2018-04-30T14:22:48.280Z,36.9
2018-04-30T14:23:38.063Z,36.9
2018-04-30T14:24:28.412Z,36.8
2018-04-30T14:25:18.198Z,36.7
2018-04-30T14:26:08.257Z,36.6
2018-04-30T14:26:58.032Z,36.4
2018-04-30T14:27:48.679Z,36.3
2018-04-30T14:28:38.731Z,36.2
2018-04-30T14:29:28.815Z,36.1
2018-04-30T14:30:18.864Z,35.9
2018-04-30T14:31:08.089Z,35.8
2018-04-30T14:31:58.989Z,35.6
2018-04-30T14:32:49.067Z,35.5
2018-04-30T14:33:38.841Z,35.4
2018-04-30T14:34:28.906Z,35.3
2018-04-30T14:35:19.260Z,35.1
2018-04-30T14:36:09.336Z,35
2018-04-30T14:36:59.378Z,34.8
2018-04-30T14:37:49.196Z,34.7
2018-04-30T14:38:39.534Z,34.6
2018-04-30T14:39:29.654Z,34.4
2018-04-30T14:40:19.642Z,34.3
2018-04-30T14:41:09.431Z,34.1
2018-04-30T14:41:59.798Z,34
2018-04-30T14:42:49.859Z,33.9
2018-04-30T14:43:39.641Z,33.8
2018-04-30T14:44:30.260Z,33.6
2018-04-30T14:45:20.045Z,33.5
2018-04-30T14:46:09.832Z,33.4
2018-04-30T14:47:00.163Z,33.3
2018-04-30T14:47:50.226Z,33.2
2018-04-30T14:48:40.039Z,33.1
2018-04-30T14:49:30.369Z,33
2018-04-30T14:50:20.420Z,32.9
2018-04-30T14:51:10.509Z,32.8
2018-04-30T14:52:00.290Z,32.7
2018-04-30T14:52:50.614Z,32.6
2018-04-30T14:53:40.686Z,32.6
2018-04-30T14:54:30.494Z,32.5
2018-04-30T14:55:20.550Z,32.4
2018-04-30T14:56:10.897Z,32.4
2018-04-30T14:57:00.956Z,32.3
2018-04-30T14:57:51.032Z,32.3
2018-04-30T14:58:41.075Z,32.3
2018-04-30T14:59:31.146Z,32.3
2018-04-30T15:00:21.241Z,32.2
2018-04-30T15:01:11.285Z,32.1
2018-04-30T15:02:01.363Z,32.1
2018-04-30T15:02:51.400Z,32
2018-04-30T15:03:41.476Z,31.9
2018-04-30T15:04:31.267Z,31.9
2018-04-30T15:05:21.340Z,31.8
2018-04-30T15:06:11.490Z,31.8
2018-04-30T15:07:01.453Z,31.8
2018-04-30T15:07:51.807Z,31.7
2018-04-30T15:08:41.870Z,31.7
2018-04-30T15:09:31.939Z,31.7
2018-04-30T15:10:21.715Z,31.6
2018-04-30T15:11:12.067Z,31.6
2018-04-30T15:12:01.861Z,31.6
2018-04-30T15:12:51.910Z,31.6
2018-04-30T15:13:41.973Z,31.6
2018-04-30T15:14:32.331Z,31.6
2018-04-30T15:15:22.116Z,31.6
2018-04-30T15:16:12.174Z,31.6
2018-04-30T15:17:02.260Z,31.6
2018-04-30T15:17:52.611Z,31.6
2018-04-30T15:18:42.377Z,31.6
2018-04-30T15:19:32.899Z,31.6
2018-04-30T15:20:22.505Z,31.6
2018-04-30T15:21:12.858Z,31.5
2018-04-30T15:22:02.621Z,31.4
2018-04-30T15:22:52.975Z,31.4
2018-04-30T15:23:43.057Z,31.4
2018-04-30T15:24:33.127Z,31.4
2018-04-30T15:25:23.180Z,31.3
2018-04-30T15:26:13.259Z,31.3
2018-04-30T15:27:03.386Z,31.3
2018-04-30T15:27:53.085Z,31.3
2018-04-30T15:28:43.149Z,31.2
2018-04-30T15:29:33.214Z,31.1
2018-04-30T15:30:23.283Z,31.1
2018-04-30T15:31:13.644Z,31.1
2018-04-30T15:32:03.420Z,31
2018-04-30T15:32:53.768Z,31
2018-04-30T15:33:43.864Z,31
2018-04-30T15:34:33.906Z,31
2018-04-30T15:35:23.962Z,30.9
2018-04-30T15:36:14.058Z,30.9
2018-04-30T15:37:04.085Z,30.9
2018-04-30T15:37:54.156Z,30.9
2018-04-30T15:38:43.958Z,30.8
2018-04-30T15:39:34.297Z,30.8
2018-04-30T15:40:24.061Z,30.8
2018-04-30T15:41:14.441Z,30.8
2018-04-30T15:42:04.801Z,30.8
2018-04-30T15:42:54.548Z,30.8
2018-04-30T15:43:44.065Z,30.8
2018-04-30T15:44:34.677Z,30.8
2018-04-30T15:45:24.746Z,30.8
2018-04-30T15:46:14.811Z,30.7
2018-04-30T15:47:04.878Z,30.7
2018-04-30T15:47:54.956Z,30.6
2018-04-30T15:48:44.953Z,30.6
2018-04-30T15:49:35.080Z,30.6
2018-04-30T15:50:25.136Z,30.6
2018-04-30T15:51:15.206Z,30.6
2018-04-30T15:52:05.288Z,30.5
2018-04-30T15:52:55.335Z,30.4
2018-04-30T15:53:45.119Z,30.4
2018-04-30T15:54:35.319Z,30.4
2018-04-30T15:55:25.237Z,30.4
2018-04-30T15:56:15.588Z,30.3
2018-04-30T15:57:05.391Z,30.3
2018-04-30T15:57:55.735Z,30.3
2018-04-30T15:58:45.800Z,30.3
2018-04-30T15:59:35.848Z,30.3
2018-04-30T16:00:25.630Z,30.2
2018-04-30T16:01:15.820Z,30.2
2018-04-30T16:02:06.071Z,30.1
2018-04-30T16:02:56.112Z,30.1
2018-04-30T16:03:45.910Z,30.1
2018-04-30T16:04:36.260Z,30.1
2018-04-30T16:05:26.018Z,30
2018-04-30T16:06:16.370Z,30
2018-04-30T16:07:06.437Z,30
2018-04-30T16:07:56.220Z,29.9
2018-04-30T16:08:46.571Z,29.9
2018-04-30T16:09:36.634Z,29.9
2018-04-30T16:10:26.435Z,29.9
2018-04-30T16:11:16.206Z,29.9
2018-04-30T16:12:06.829Z,29.9
2018-04-30T16:12:56.612Z,29.9
2018-04-30T16:13:46.972Z,29.8
2018-04-30T16:14:37.039Z,29.8
2018-04-30T16:15:27.088Z,29.8
2018-04-30T16:16:17.168Z,29.8
2018-04-30T16:17:06.959Z,29.8
2018-04-30T16:17:57.014Z,29.8
2018-04-30T16:18:47.076Z,29.7
2018-04-30T16:19:37.406Z,29.7
2018-04-30T16:20:27.451Z,29.6
2018-04-30T16:21:17.553Z,29.6
2018-04-30T16:22:07.611Z,29.6
2018-04-30T16:22:57.422Z,29.5
2018-04-30T16:23:47.751Z,29.5
2018-04-30T16:24:37.807Z,29.4
2018-04-30T16:25:27.876Z,29.4
2018-04-30T16:26:17.939Z,29.3
2018-04-30T16:27:07.741Z,29.3
2018-04-30T16:27:57.777Z,29.2
2018-04-30T16:28:48.155Z,29.2
2018-04-30T16:29:37.912Z,29.1
2018-04-30T16:30:27.983Z,29.1
2018-04-30T16:31:18.038Z,29
2018-04-30T16:32:08.388Z,28.9